sensor_id;sensor_type;location;lat;lon;timestamp;pressure;altitude;pressure_sealevel;temperature;humidity
58223;BME280;44020;50.890;15.796;2023-05-19T00:02:27;98528.13;;;8.11;70.92
58223;BME280;44020;50.890;15.796;2023-05-19T00:05:00;98525.44;;;8.08;70.88
58223;BME280;44020;50.890;15.796;2023-05-19T00:10:35;98528.77;;;8.05;71.14
58223;BME280;44020;50.890;15.796;2023-05-19T00:16:08;98528.39;;;8.05;71.42
58223;BME280;44020;50.890;15.796;2023-05-19T00:19:02;98527.15;;;8.06;71.31
58223;BME280;44020;50.890;15.796;2023-05-19T00:21:28;98523.16;;;8.04;71.16
58223;BME280;44020;50.890;15.796;2023-05-19T00:23:57;98519.50;;;7.99;71.45
58223;BME280;44020;50.890;15.796;2023-05-19T00:26:26;98520.51;;;7.96;71.33
58223;BME280;44020;50.890;15.796;2023-05-19T00:29:14;98519.30;;;7.96;71.47
58223;BME280;44020;50.890;15.796;2023-05-19T00:31:47;98517.25;;;7.94;71.61
58223;BME280;44020;50.890;15.796;2023-05-19T00:34:46;98521.08;;;7.92;71.82
58223;BME280;44020;50.890;15.796;2023-05-19T00:37:44;98521.83;;;7.91;71.80
58223;BME280;44020;50.890;15.796;2023-05-19T00:40:23;98520.32;;;7.89;71.83
58223;BME280;44020;50.890;15.796;2023-05-19T00:43:12;98517.58;;;7.87;72.01
58223;BME280;44020;50.890;15.796;2023-05-19T00:46:03;98517.88;;;7.85;71.99
58223;BME280;44020;50.890;15.796;2023-05-19T00:48:50;98516.66;;;7.80;72.17
58223;BME280;44020;50.890;15.796;2023-05-19T00:51:46;98517.90;;;7.80;72.54
58223;BME280;44020;50.890;15.796;2023-05-19T00:57:29;98517.52;;;7.77;72.46
58223;BME280;44020;50.890;15.796;2023-05-19T01:00:16;98517.31;;;7.74;72.52
58223;BME280;44020;50.890;15.796;2023-05-19T01:02:56;98520.42;;;7.71;72.85
58223;BME280;44020;50.890;15.796;2023-05-19T01:08:51;98516.59;;;7.66;72.86
58223;BME280;44020;50.890;15.796;2023-05-19T01:18:24;98516.33;;;7.56;72.58
58223;BME280;44020;50.890;15.796;2023-05-19T01:34:59;98510.67;;;7.33;73.48
58223;BME280;44020;50.890;15.796;2023-05-19T01:37:40;98511.69;;;7.33;73.65
58223;BME280;44020;50.890;15.796;2023-05-19T01:40:49;98513.71;;;7.32;73.69
58223;BME280;44020;50.890;15.796;2023-05-19T01:46:54;98520.66;;;7.26;73.72
58223;BME280;44020;50.890;15.796;2023-05-19T01:49:39;98522.98;;;7.26;74.01
58223;BME280;44020;50.890;15.796;2023-05-19T01:52:57;98524.41;;;7.25;73.99
58223;BME280;44020;50.890;15.796;2023-05-19T01:59:51;98525.33;;;7.25;74.25
58223;BME280;44020;50.890;15.796;2023-05-19T02:06:18;98518.14;;;7.19;74.34
58223;BME280;44020;50.890;15.796;2023-05-19T02:28:46;98516.14;;;7.21;74.92
58223;BME280;44020;50.890;15.796;2023-05-19T02:31:32;98517.03;;;7.21;74.98
58223;BME280;44020;50.890;15.796;2023-05-19T02:34:28;98518.34;;;7.19;75.24
58223;BME280;44020;50.890;15.796;2023-05-19T02:55:02;98514.51;;;7.05;75.70
58223;BME280;44020;50.890;15.796;2023-05-19T02:57:46;98517.91;;;7.04;76.11
58223;BME280;44020;50.890;15.796;2023-05-19T03:03:29;98517.21;;;7.04;76.09
58223;BME280;44020;50.890;15.796;2023-05-19T03:13:00;98504.67;;;7.08;76.34
58223;BME280;44020;50.890;15.796;2023-05-19T03:16:09;98497.56;;;7.05;76.65
58223;BME280;44020;50.890;15.796;2023-05-19T03:18:45;98495.48;;;7.04;76.58
58223;BME280;44020;50.890;15.796;2023-05-19T03:21:36;98495.48;;;7.04;76.86
58223;BME280;44020;50.890;15.796;2023-05-19T03:24:06;98497.05;;;7.05;77.02
58223;BME280;44020;50.890;15.796;2023-05-19T03:26:46;98495.11;;;7.04;76.56
58223;BME280;44020;50.890;15.796;2023-05-19T03:29:32;98492.89;;;7.03;76.88
58223;BME280;44020;50.890;15.796;2023-05-19T03:32:28;98497.41;;;7.00;77.01
58223;BME280;44020;50.890;15.796;2023-05-19T03:38:12;98498.65;;;7.00;77.40
58223;BME280;44020;50.890;15.796;2023-05-19T03:43:50;98499.00;;;7.00;77.26
58223;BME280;44020;50.890;15.796;2023-05-19T03:46:50;98506.58;;;7.01;77.25
58223;BME280;44020;50.890;15.796;2023-05-19T03:53:07;98508.63;;;6.98;77.52
58223;BME280;44020;50.890;15.796;2023-05-19T03:58:42;98505.27;;;6.98;77.82
58223;BME280;44020;50.890;15.796;2023-05-19T04:13:51;98498.00;;;7.11;78.92
58223;BME280;44020;50.890;15.796;2023-05-19T04:19:54;98505.30;;;7.22;79.17
58223;BME280;44020;50.890;15.796;2023-05-19T04:22:29;98509.11;;;7.28;79.47
58223;BME280;44020;50.890;15.796;2023-05-19T04:25:15;98509.63;;;7.36;79.68
58223;BME280;44020;50.890;15.796;2023-05-19T04:28:06;98513.75;;;7.55;80.06
58223;BME280;44020;50.890;15.796;2023-05-19T04:40:38;98500.08;;;8.02;80.46
58223;BME280;44020;50.890;15.796;2023-05-19T04:47:31;98503.81;;;8.16;81.18
58223;BME280;44020;50.890;15.796;2023-05-19T04:56:37;98505.67;;;8.37;80.89
58223;BME280;44020;50.890;15.796;2023-05-19T04:59:48;98505.05;;;8.43;81.00
58223;BME280;44020;50.890;15.796;2023-05-19T05:09:37;98498.31;;;8.61;80.12
58223;BME280;44020;50.890;15.796;2023-05-19T05:21:19;98496.47;;;8.77;79.55
58223;BME280;44020;50.890;15.796;2023-05-19T05:23:54;98497.30;;;8.81;79.54
58223;BME280;44020;50.890;15.796;2023-05-19T05:30:16;98498.63;;;8.90;79.27
58223;BME280;44020;50.890;15.796;2023-05-19T05:33:02;98502.56;;;8.96;79.32
58223;BME280;44020;50.890;15.796;2023-05-19T05:36:09;98504.07;;;9.02;79.05
58223;BME280;44020;50.890;15.796;2023-05-19T05:38:58;98503.51;;;9.06;78.75
58223;BME280;44020;50.890;15.796;2023-05-19T05:41:33;98509.09;;;9.11;78.89
58223;BME280;44020;50.890;15.796;2023-05-19T05:44:42;98516.19;;;9.18;78.67
58223;BME280;44020;50.890;15.796;2023-05-19T05:47:30;98518.15;;;9.24;78.45
58223;BME280;44020;50.890;15.796;2023-05-19T05:50:21;98519.40;;;9.27;78.27
58223;BME280;44020;50.890;15.796;2023-05-19T05:53:20;98521.09;;;9.29;77.73
58223;BME280;44020;50.890;15.796;2023-05-19T05:56:04;98523.46;;;9.31;77.39
58223;BME280;44020;50.890;15.796;2023-05-19T05:58:32;98520.84;;;9.31;77.05
58223;BME280;44020;50.890;15.796;2023-05-19T06:04:14;98523.39;;;9.33;76.96
58223;BME280;44020;50.890;15.796;2023-05-19T06:06:54;98526.05;;;9.33;76.51
58223;BME280;44020;50.890;15.796;2023-05-19T06:10:07;98525.30;;;9.33;76.51
58223;BME280;44020;50.890;15.796;2023-05-19T06:12:55;98525.63;;;9.34;76.20
58223;BME280;44020;50.890;15.796;2023-05-19T06:16:19;98527.64;;;9.33;76.07
58223;BME280;44020;50.890;15.796;2023-05-19T06:23:14;98526.45;;;9.35;76.20
58223;BME280;44020;50.890;15.796;2023-05-19T06:26:06;98527.77;;;9.37;76.16
58223;BME280;44020;50.890;15.796;2023-05-19T06:29:08;98531.55;;;9.40;76.06
58223;BME280;44020;50.890;15.796;2023-05-19T06:31:34;98530.85;;;9.40;75.97
58223;BME280;44020;50.890;15.796;2023-05-19T06:34:11;98536.00;;;9.40;75.72
58223;BME280;44020;50.890;15.796;2023-05-19T06:37:09;98545.16;;;9.37;75.97
58223;BME280;44020;50.890;15.796;2023-05-19T06:42:46;98545.91;;;9.40;75.99
58223;BME280;44020;50.890;15.796;2023-05-19T06:45:55;98546.81;;;9.40;75.95
58223;BME280;44020;50.890;15.796;2023-05-19T06:48:52;98554.23;;;9.40;76.04
58223;BME280;44020;50.890;15.796;2023-05-19T06:56:09;98556.17;;;9.44;76.27
58223;BME280;44020;50.890;15.796;2023-05-19T06:59:36;98560.30;;;9.46;76.43
58223;BME280;44020;50.890;15.796;2023-05-19T07:12:50;98553.23;;;9.59;76.57
58223;BME280;44020;50.890;15.796;2023-05-19T07:15:38;98555.17;;;9.63;76.53
58223;BME280;44020;50.890;15.796;2023-05-19T07:25:30;98555.63;;;9.74;76.98
58223;BME280;44020;50.890;15.796;2023-05-19T07:28:22;98557.65;;;9.76;77.10
58223;BME280;44020;50.890;15.796;2023-05-19T07:31:41;98558.12;;;9.77;76.96
58223;BME280;44020;50.890;15.796;2023-05-19T07:53:59;98556.02;;;10.00;77.54
58223;BME280;44020;50.890;15.796;2023-05-19T08:03:23;98562.82;;;10.06;77.77
58223;BME280;44020;50.890;15.796;2023-05-19T08:30:49;98568.25;;;10.27;78.41
58223;BME280;44020;50.890;15.796;2023-05-19T08:33:46;98563.86;;;10.29;78.12
58223;BME280;44020;50.890;15.796;2023-05-19T08:36:12;98559.09;;;10.32;78.32
58223;BME280;44020;50.890;15.796;2023-05-19T08:39:34;98562.42;;;10.33;78.43
58223;BME280;44020;50.890;15.796;2023-05-19T08:41:59;98558.85;;;10.33;78.31
58223;BME280;44020;50.890;15.796;2023-05-19T08:45:48;98562.27;;;10.36;78.24
58223;BME280;44020;50.890;15.796;2023-05-19T08:48:30;98560.40;;;10.37;78.46
58223;BME280;44020;50.890;15.796;2023-05-19T08:54:13;98559.70;;;10.44;78.65
58223;BME280;44020;50.890;15.796;2023-05-19T08:57:03;98559.53;;;10.47;78.97
58223;BME280;44020;50.890;15.796;2023-05-19T09:15:44;98533.89;;;10.60;79.02
58223;BME280;44020;50.890;15.796;2023-05-19T09:18:16;98537.07;;;10.63;78.91
58223;BME280;44020;50.890;15.796;2023-05-19T09:20:46;98531.74;;;10.67;78.84
58223;BME280;44020;50.890;15.796;2023-05-19T09:23:33;98530.76;;;10.68;78.89
58223;BME280;44020;50.890;15.796;2023-05-19T09:28:47;98526.02;;;10.79;79.50
58223;BME280;44020;50.890;15.796;2023-05-19T09:31:14;98531.33;;;10.83;79.50
58223;BME280;44020;50.890;15.796;2023-05-19T09:33:53;98532.92;;;10.83;79.24
58223;BME280;44020;50.890;15.796;2023-05-19T09:36:46;98532.32;;;10.84;79.44
58223;BME280;44020;50.890;15.796;2023-05-19T09:45:42;98539.80;;;10.84;79.21
58223;BME280;44020;50.890;15.796;2023-05-19T09:48:21;98537.94;;;10.79;79.62
58223;BME280;44020;50.890;15.796;2023-05-19T09:50:55;98540.97;;;10.73;79.65
58223;BME280;44020;50.890;15.796;2023-05-19T09:57:35;98540.77;;;10.67;79.87
58223;BME280;44020;50.890;15.796;2023-05-19T10:00:10;98543.16;;;10.66;80.05
58223;BME280;44020;50.890;15.796;2023-05-19T10:05:59;98540.43;;;10.67;80.21
58223;BME280;44020;50.890;15.796;2023-05-19T10:08:56;98539.11;;;10.65;80.53
58223;BME280;44020;50.890;15.796;2023-05-19T10:17:49;98538.82;;;10.70;81.24
58223;BME280;44020;50.890;15.796;2023-05-19T10:20:40;98541.91;;;10.69;81.16
58223;BME280;44020;50.890;15.796;2023-05-19T10:23:58;98537.19;;;10.71;81.48
58223;BME280;44020;50.890;15.796;2023-05-19T10:26:49;98536.76;;;10.72;81.53
58223;BME280;44020;50.890;15.796;2023-05-19T10:29:43;98531.76;;;10.75;81.92
58223;BME280;44020;50.890;15.796;2023-05-19T10:32:23;98533.73;;;10.78;81.74
58223;BME280;44020;50.890;15.796;2023-05-19T10:35:19;98529.58;;;10.79;81.91
58223;BME280;44020;50.890;15.796;2023-05-19T10:41:52;98527.16;;;10.84;81.77
58223;BME280;44020;50.890;15.796;2023-05-19T10:46:59;98523.06;;;10.91;81.86
58223;BME280;44020;50.890;15.796;2023-05-19T10:50:32;98521.52;;;10.93;82.15
58223;BME280;44020;50.890;15.796;2023-05-19T10:56:31;98522.35;;;10.99;82.04
58223;BME280;44020;50.890;15.796;2023-05-19T11:03:10;98521.61;;;11.03;82.20
58223;BME280;44020;50.890;15.796;2023-05-19T11:09:24;98519.68;;;11.06;82.24
58223;BME280;44020;50.890;15.796;2023-05-19T11:12:00;98520.09;;;11.08;82.36
58223;BME280;44020;50.890;15.796;2023-05-19T11:14:27;98520.13;;;11.10;82.19
58223;BME280;44020;50.890;15.796;2023-05-19T11:17:17;98515.84;;;11.11;82.20
58223;BME280;44020;50.890;15.796;2023-05-19T11:20:29;98519.45;;;11.13;82.34
58223;BME280;44020;50.890;15.796;2023-05-19T11:23:05;98519.10;;;11.13;82.34
58223;BME280;44020;50.890;15.796;2023-05-19T11:27:00;98511.25;;;11.13;82.25
58223;BME280;44020;50.890;15.796;2023-05-19T11:32:43;98511.55;;;11.14;82.53
58223;BME280;44020;50.890;15.796;2023-05-19T11:35:22;98514.42;;;11.19;82.65
58223;BME280;44020;50.890;15.796;2023-05-19T11:37:53;98518.44;;;11.23;82.55
58223;BME280;44020;50.890;15.796;2023-05-19T11:40:41;98517.73;;;11.27;82.45
58223;BME280;44020;50.890;15.796;2023-05-19T11:43:42;98518.42;;;11.27;82.37
58223;BME280;44020;50.890;15.796;2023-05-19T11:46:29;98515.83;;;11.29;82.54
58223;BME280;44020;50.890;15.796;2023-05-19T11:49:37;98516.02;;;11.31;82.47
58223;BME280;44020;50.890;15.796;2023-05-19T11:52:26;98517.73;;;11.32;82.30
58223;BME280;44020;50.890;15.796;2023-05-19T11:55:08;98518.61;;;11.35;82.30
58223;BME280;44020;50.890;15.796;2023-05-19T11:57:38;98518.55;;;11.39;82.37
58223;BME280;44020;50.890;15.796;2023-05-19T12:00:33;98518.82;;;11.44;82.26
58223;BME280;44020;50.890;15.796;2023-05-19T12:03:24;98520.92;;;11.48;82.04
58223;BME280;44020;50.890;15.796;2023-05-19T12:12:00;98521.31;;;11.46;82.12
58223;BME280;44020;50.890;15.796;2023-05-19T12:15:11;98519.20;;;11.46;82.28
58223;BME280;44020;50.890;15.796;2023-05-19T12:17:37;98527.33;;;11.44;82.11
58223;BME280;44020;50.890;15.796;2023-05-19T12:20:05;98527.87;;;11.44;82.13
58223;BME280;44020;50.890;15.796;2023-05-19T12:22:42;98528.39;;;11.44;82.23
58223;BME280;44020;50.890;15.796;2023-05-19T12:25:10;98523.30;;;11.46;82.49
58223;BME280;44020;50.890;15.796;2023-05-19T12:27:41;98520.48;;;11.49;82.68
58223;BME280;44020;50.890;15.796;2023-05-19T12:30:10;98518.38;;;11.52;82.43
58223;BME280;44020;50.890;15.796;2023-05-19T12:32:41;98512.77;;;11.56;82.80
58223;BME280;44020;50.890;15.796;2023-05-19T12:35:14;98513.26;;;11.59;82.57
58223;BME280;44020;50.890;15.796;2023-05-19T12:37:41;98513.48;;;11.64;82.68
58223;BME280;44020;50.890;15.796;2023-05-19T12:40:14;98511.93;;;11.69;82.64
58223;BME280;44020;50.890;15.796;2023-05-19T12:45:43;98511.86;;;11.76;82.52
58223;BME280;44020;50.890;15.796;2023-05-19T12:48:11;98516.89;;;11.78;82.26
58223;BME280;44020;50.890;15.796;2023-05-19T12:50:42;98509.80;;;11.81;82.02
58223;BME280;44020;50.890;15.796;2023-05-19T12:53:11;98513.38;;;11.83;82.08
58223;BME280;44020;50.890;15.796;2023-05-19T12:55:43;98512.38;;;11.85;81.87
58223;BME280;44020;50.890;15.796;2023-05-19T12:58:11;98515.34;;;11.86;81.76
58223;BME280;44020;50.890;15.796;2023-05-19T13:00:43;98512.62;;;11.87;81.85
58223;BME280;44020;50.890;15.796;2023-05-19T13:03:20;98512.83;;;11.90;81.54
58223;BME280;44020;50.890;15.796;2023-05-19T13:05:49;98516.32;;;11.91;81.70
58223;BME280;44020;50.890;15.796;2023-05-19T13:08:18;98516.23;;;11.92;81.64
58223;BME280;44020;50.890;15.796;2023-05-19T13:10:46;98514.79;;;11.93;81.67
58223;BME280;44020;50.890;15.796;2023-05-19T13:13:16;98516.23;;;11.92;81.52
58223;BME280;44020;50.890;15.796;2023-05-19T13:15:45;98513.09;;;11.88;81.20
58223;BME280;44020;50.890;15.796;2023-05-19T13:18:17;98510.08;;;11.85;81.23
58223;BME280;44020;50.890;15.796;2023-05-19T13:20:45;98509.71;;;11.82;81.10
58223;BME280;44020;50.890;15.796;2023-05-19T13:23:15;98509.30;;;11.80;81.23
58223;BME280;44020;50.890;15.796;2023-05-19T13:25:45;98511.56;;;11.81;81.43
58223;BME280;44020;50.890;15.796;2023-05-19T13:28:13;98513.42;;;11.82;81.39
58223;BME280;44020;50.890;15.796;2023-05-19T13:31:03;98512.53;;;11.85;81.55
58223;BME280;44020;50.890;15.796;2023-05-19T13:33:30;98509.00;;;11.88;81.51
58223;BME280;44020;50.890;15.796;2023-05-19T13:35:58;98506.08;;;11.90;81.47
58223;BME280;44020;50.890;15.796;2023-05-19T13:38:25;98503.50;;;11.91;81.40
58223;BME280;44020;50.890;15.796;2023-05-19T13:40:56;98507.73;;;11.94;81.32
58223;BME280;44020;50.890;15.796;2023-05-19T13:43:23;98503.70;;;11.96;81.18
58223;BME280;44020;50.890;15.796;2023-05-19T13:45:50;98499.28;;;11.98;81.05
58223;BME280;44020;50.890;15.796;2023-05-19T13:48:18;98496.05;;;11.99;81.03
58223;BME280;44020;50.890;15.796;2023-05-19T13:50:51;98492.84;;;11.99;81.00
58223;BME280;44020;50.890;15.796;2023-05-19T13:53:20;98498.75;;;11.98;80.76
58223;BME280;44020;50.890;15.796;2023-05-19T13:55:48;98497.80;;;11.97;80.90
58223;BME280;44020;50.890;15.796;2023-05-19T13:58:25;98498.34;;;11.97;81.06
58223;BME280;44020;50.890;15.796;2023-05-19T14:00:52;98494.13;;;11.95;80.87
58223;BME280;44020;50.890;15.796;2023-05-19T14:03:22;98494.20;;;11.94;80.84
58223;BME280;44020;50.890;15.796;2023-05-19T14:05:53;98488.50;;;11.94;80.91
58223;BME280;44020;50.890;15.796;2023-05-19T14:08:20;98491.83;;;11.95;81.09
58223;BME280;44020;50.890;15.796;2023-05-19T14:10:49;98491.91;;;11.97;80.84
58223;BME280;44020;50.890;15.796;2023-05-19T14:13:16;98489.94;;;11.97;80.80
58223;BME280;44020;50.890;15.796;2023-05-19T14:16:04;98491.35;;;11.97;80.61
58223;BME280;44020;50.890;15.796;2023-05-19T14:18:52;98493.91;;;11.96;80.77
58223;BME280;44020;50.890;15.796;2023-05-19T14:21:42;98496.09;;;11.96;80.74
58223;BME280;44020;50.890;15.796;2023-05-19T14:27:49;98496.52;;;11.94;80.75
58223;BME280;44020;50.890;15.796;2023-05-19T14:33:04;98500.30;;;11.94;80.65
58223;BME280;44020;50.890;15.796;2023-05-19T14:44:19;98497.80;;;11.97;80.78
58223;BME280;44020;50.890;15.796;2023-05-19T14:47:06;98495.16;;;11.99;80.84
58223;BME280;44020;50.890;15.796;2023-05-19T14:49:56;98491.98;;;12.01;80.77
58223;BME280;44020;50.890;15.796;2023-05-19T14:53:04;98492.33;;;12.01;80.79
58223;BME280;44020;50.890;15.796;2023-05-19T14:55:33;98494.69;;;12.01;80.66
58223;BME280;44020;50.890;15.796;2023-05-19T15:04:41;98496.38;;;11.97;80.71
58223;BME280;44020;50.890;15.796;2023-05-19T15:07:40;98494.34;;;11.98;80.70
58223;BME280;44020;50.890;15.796;2023-05-19T15:14:19;98487.52;;;11.93;80.65
58223;BME280;44020;50.890;15.796;2023-05-19T15:17:06;98490.45;;;11.92;80.59
58223;BME280;44020;50.890;15.796;2023-05-19T15:19:35;98486.31;;;11.92;80.71
58223;BME280;44020;50.890;15.796;2023-05-19T15:22:41;98483.11;;;11.95;80.81
58223;BME280;44020;50.890;15.796;2023-05-19T15:25:22;98479.29;;;11.94;80.55
58223;BME280;44020;50.890;15.796;2023-05-19T15:28:03;98482.49;;;11.94;80.66
58223;BME280;44020;50.890;15.796;2023-05-19T15:37:31;98484.98;;;11.91;80.71
58223;BME280;44020;50.890;15.796;2023-05-19T15:40:10;98483.55;;;11.91;80.76
58223;BME280;44020;50.890;15.796;2023-05-19T15:43:00;98484.45;;;11.94;80.82
58223;BME280;44020;50.890;15.796;2023-05-19T15:49:48;98481.67;;;11.98;80.83
58223;BME280;44020;50.890;15.796;2023-05-19T15:52:45;98481.55;;;12.00;80.82
58223;BME280;44020;50.890;15.796;2023-05-19T15:55:48;98481.64;;;12.01;80.66
58223;BME280;44020;50.890;15.796;2023-05-19T15:58:44;98478.58;;;12.02;80.64
58223;BME280;44020;50.890;15.796;2023-05-19T16:01:13;98480.15;;;12.02;80.74
58223;BME280;44020;50.890;15.796;2023-05-19T16:08:10;98482.08;;;12.03;80.70
58223;BME280;44020;50.890;15.796;2023-05-19T16:14:10;98481.43;;;12.02;81.00
58223;BME280;44020;50.890;15.796;2023-05-19T16:16:36;98480.77;;;12.01;80.87
58223;BME280;44020;50.890;15.796;2023-05-19T16:25:28;98477.77;;;11.98;81.24
58223;BME280;44020;50.890;15.796;2023-05-19T16:34:18;98482.37;;;11.96;81.38
58223;BME280;44020;50.890;15.796;2023-05-19T16:40:16;98482.22;;;11.89;81.48
58223;BME280;44020;50.890;15.796;2023-05-19T16:43:23;98486.71;;;11.88;81.64
58223;BME280;44020;50.890;15.796;2023-05-19T16:46:00;98484.90;;;11.85;81.73
58223;BME280;44020;50.890;15.796;2023-05-19T16:48:31;98481.23;;;11.84;81.93
58223;BME280;44020;50.890;15.796;2023-05-19T16:50:58;98483.58;;;11.84;81.93
58223;BME280;44020;50.890;15.796;2023-05-19T16:53:42;98484.76;;;11.82;81.95
58223;BME280;44020;50.890;15.796;2023-05-19T16:56:41;98483.85;;;11.80;82.19
58223;BME280;44020;50.890;15.796;2023-05-19T16:59:37;98484.52;;;11.78;82.36
58223;BME280;44020;50.890;15.796;2023-05-19T17:02:05;98482.62;;;11.74;82.24
58223;BME280;44020;50.890;15.796;2023-05-19T17:04:53;98481.55;;;11.71;82.70
58223;BME280;44020;50.890;15.796;2023-05-19T17:11:07;98487.76;;;11.69;83.08
58223;BME280;44020;50.890;15.796;2023-05-19T17:13:52;98491.50;;;11.69;83.05
58223;BME280;44020;50.890;15.796;2023-05-19T17:19:27;98494.91;;;11.68;83.36
58223;BME280;44020;50.890;15.796;2023-05-19T17:22:02;98496.83;;;11.69;83.37
58223;BME280;44020;50.890;15.796;2023-05-19T17:24:54;98494.88;;;11.69;83.63
58223;BME280;44020;50.890;15.796;2023-05-19T17:27:24;98493.42;;;11.69;83.64
58223;BME280;44020;50.890;15.796;2023-05-19T17:29:51;98495.36;;;11.70;83.59
58223;BME280;44020;50.890;15.796;2023-05-19T17:32:59;98499.53;;;11.68;83.67
58223;BME280;44020;50.890;15.796;2023-05-19T17:36:13;98501.98;;;11.69;83.85
58223;BME280;44020;50.890;15.796;2023-05-19T17:42:25;98500.65;;;11.68;83.98
58223;BME280;44020;50.890;15.796;2023-05-19T17:45:01;98504.46;;;11.66;84.10
58223;BME280;44020;50.890;15.796;2023-05-19T17:47:57;98503.67;;;11.67;84.21
58223;BME280;44020;50.890;15.796;2023-05-19T17:50:30;98502.60;;;11.68;84.16
58223;BME280;44020;50.890;15.796;2023-05-19T17:53:01;98503.87;;;11.67;84.17
58223;BME280;44020;50.890;15.796;2023-05-19T17:55:51;98501.12;;;11.65;84.25
58223;BME280;44020;50.890;15.796;2023-05-19T18:01:26;98498.48;;;11.65;84.53
58223;BME280;44020;50.890;15.796;2023-05-19T18:08:05;98495.88;;;11.64;84.80
58223;BME280;44020;50.890;15.796;2023-05-19T18:10:43;98499.25;;;11.64;85.00
58223;BME280;44020;50.890;15.796;2023-05-19T18:14:05;98499.61;;;11.64;85.06
58223;BME280;44020;50.890;15.796;2023-05-19T18:16:29;98502.28;;;11.64;85.10
58223;BME280;44020;50.890;15.796;2023-05-19T18:19:11;98498.96;;;11.63;85.04
58223;BME280;44020;50.890;15.796;2023-05-19T18:22:09;98495.98;;;11.62;85.44
58223;BME280;44020;50.890;15.796;2023-05-19T18:24:55;98494.08;;;11.62;85.36
58223;BME280;44020;50.890;15.796;2023-05-19T18:27:23;98495.89;;;11.61;85.33
58223;BME280;44020;50.890;15.796;2023-05-19T18:30:27;98492.42;;;11.59;85.37
58223;BME280;44020;50.890;15.796;2023-05-19T18:32:54;98489.14;;;11.58;85.78
58223;BME280;44020;50.890;15.796;2023-05-19T18:41:38;98490.52;;;11.56;86.14
58223;BME280;44020;50.890;15.796;2023-05-19T18:47:27;98493.13;;;11.54;86.20
58223;BME280;44020;50.890;15.796;2023-05-19T18:50:26;98493.74;;;11.53;86.28
58223;BME280;44020;50.890;15.796;2023-05-19T18:57:05;98495.34;;;11.50;86.71
58223;BME280;44020;50.890;15.796;2023-05-19T19:00:10;98502.33;;;11.49;86.76
58223;BME280;44020;50.890;15.796;2023-05-19T19:09:48;98499.93;;;11.50;87.33
58223;BME280;44020;50.890;15.796;2023-05-19T19:16:05;98496.61;;;11.49;87.55
58223;BME280;44020;50.890;15.796;2023-05-19T19:18:49;98497.20;;;11.49;87.43
58223;BME280;44020;50.890;15.796;2023-05-19T19:34:53;98505.61;;;11.44;88.12
58223;BME280;44020;50.890;15.796;2023-05-19T19:38:43;98505.95;;;11.45;88.17
58223;BME280;44020;50.890;15.796;2023-05-19T19:41:05;98498.61;;;11.45;88.34
58223;BME280;44020;50.890;15.796;2023-05-19T19:44:05;98500.59;;;11.45;88.39
58223;BME280;44020;50.890;15.796;2023-05-19T19:46:33;98499.77;;;11.44;88.48
58223;BME280;44020;50.890;15.796;2023-05-19T19:53:24;98505.89;;;11.46;88.58
58223;BME280;44020;50.890;15.796;2023-05-19T19:59:43;98509.39;;;11.44;88.72
58223;BME280;44020;50.890;15.796;2023-05-19T20:02:51;98510.59;;;11.45;88.97
58223;BME280;44020;50.890;15.796;2023-05-19T20:05:42;98511.83;;;11.45;88.94
58223;BME280;44020;50.890;15.796;2023-05-19T20:08:59;98513.91;;;11.45;89.07
58223;BME280;44020;50.890;15.796;2023-05-19T20:14:46;98515.64;;;11.43;89.19
58223;BME280;44020;50.890;15.796;2023-05-19T20:17:21;98515.16;;;11.43;89.16
58223;BME280;44020;50.890;15.796;2023-05-19T20:19:59;98514.95;;;11.40;89.29
58223;BME280;44020;50.890;15.796;2023-05-19T20:22:37;98516.16;;;11.38;89.48
58223;BME280;44020;50.890;15.796;2023-05-19T20:25:15;98511.67;;;11.35;89.69
58223;BME280;44020;50.890;15.796;2023-05-19T20:28:09;98511.53;;;11.35;89.78
58223;BME280;44020;50.890;15.796;2023-05-19T20:30:59;98513.71;;;11.34;90.02
58223;BME280;44020;50.890;15.796;2023-05-19T20:34:04;98515.04;;;11.33;90.04
58223;BME280;44020;50.890;15.796;2023-05-19T20:40:13;98519.36;;;11.35;90.21
58223;BME280;44020;50.890;15.796;2023-05-19T20:50:35;98517.65;;;11.31;90.37
58223;BME280;44020;50.890;15.796;2023-05-19T20:53:13;98514.38;;;11.29;90.54
58223;BME280;44020;50.890;15.796;2023-05-19T20:56:55;98510.73;;;11.28;90.68
58223;BME280;44020;50.890;15.796;2023-05-19T21:02:32;98509.52;;;11.27;91.11
58223;BME280;44020;50.890;15.796;2023-05-19T21:05:38;98504.94;;;11.27;91.24
58223;BME280;44020;50.890;15.796;2023-05-19T21:08:24;98505.06;;;11.27;91.39
58223;BME280;44020;50.890;15.796;2023-05-19T21:11:03;98502.59;;;11.27;91.56
58223;BME280;44020;50.890;15.796;2023-05-19T21:13:43;98504.64;;;11.26;91.68
58223;BME280;44020;50.890;15.796;2023-05-19T21:16:33;98503.78;;;11.25;91.84
58223;BME280;44020;50.890;15.796;2023-05-19T21:19:27;98506.89;;;11.23;91.79
58223;BME280;44020;50.890;15.796;2023-05-19T21:22:14;98503.59;;;11.22;91.78
58223;BME280;44020;50.890;15.796;2023-05-19T21:24:55;98504.16;;;11.22;91.86
58223;BME280;44020;50.890;15.796;2023-05-19T21:27:38;98496.73;;;11.21;91.80
58223;BME280;44020;50.890;15.796;2023-05-19T21:34:25;98496.73;;;11.21;92.25
58223;BME280;44020;50.890;15.796;2023-05-19T21:44:17;98490.64;;;11.18;92.96
58223;BME280;44020;50.890;15.796;2023-05-19T21:47:23;98497.79;;;11.18;92.95
58223;BME280;44020;50.890;15.796;2023-05-19T21:50:05;98498.58;;;11.17;93.14
58223;BME280;44020;50.890;15.796;2023-05-19T21:53:11;98504.21;;;11.18;93.20
58223;BME280;44020;50.890;15.796;2023-05-19T22:04:16;98496.59;;;11.14;93.76
58223;BME280;44020;50.890;15.796;2023-05-19T22:13:09;98481.05;;;11.13;94.44
58223;BME280;44020;50.890;15.796;2023-05-19T22:15:59;98476.33;;;11.11;94.66
58223;BME280;44020;50.890;15.796;2023-05-19T22:18:38;98473.65;;;11.08;95.10
58223;BME280;44020;50.890;15.796;2023-05-19T22:21:13;98471.02;;;11.08;95.22